sensor_id;sensor_type;location;lat;lon;timestamp;temperature;humidity
15969;DHT22;8085;53.472;9.794;2022-07-17T00:00:48;14.30;1.00
15969;DHT22;8085;53.472;9.794;2022-07-17T00:03:17;14.30;1.00
15969;DHT22;8085;53.472;9.794;2022-07-17T00:05:45;14.20;1.00
15969;DHT22;8085;53.472;9.794;2022-07-17T00:08:13;14.20;1.00
15969;DHT22;8085;53.472;9.794;2022-07-17T00:10:42;14.10;1.00
15969;DHT22;8085;53.472;9.794;2022-07-17T00:13:09;14.20;1.00
15969;DHT22;8085;53.472;9.794;2022-07-17T00:15:37;14.30;1.00
15969;DHT22;8085;53.472;9.794;2022-07-17T00:18:04;14.20;1.00
15969;DHT22;8085;53.472;9.794;2022-07-17T00:20:32;14.20;1.00
15969;DHT22;8085;53.472;9.794;2022-07-17T00:23:01;14.20;1.00
15969;DHT22;8085;53.472;9.794;2022-07-17T00:25:28;14.20;1.00
15969;DHT22;8085;53.472;9.794;2022-07-17T00:27:55;14.30;1.00
15969;DHT22;8085;53.472;9.794;2022-07-17T00:30:23;14.20;1.00
15969;DHT22;8085;53.472;9.794;2022-07-17T00:32:50;14.20;1.00
15969;DHT22;8085;53.472;9.794;2022-07-17T00:35:17;14.30;1.00
15969;DHT22;8085;53.472;9.794;2022-07-17T00:37:46;14.30;1.00
15969;DHT22;8085;53.472;9.794;2022-07-17T00:40:19;14.20;1.00
15969;DHT22;8085;53.472;9.794;2022-07-17T00:42:46;13.90;1.00
15969;DHT22;8085;53.472;9.794;2022-07-17T00:45:14;13.80;1.00
15969;DHT22;8085;53.472;9.794;2022-07-17T00:47:53;13.90;1.00
15969;DHT22;8085;53.472;9.794;2022-07-17T00:50:22;13.80;1.00
15969;DHT22;8085;53.472;9.794;2022-07-17T00:52:49;13.70;1.00
15969;DHT22;8085;53.472;9.794;2022-07-17T00:55:18;13.70;1.00
15969;DHT22;8085;53.472;9.794;2022-07-17T00:57:46;13.60;1.00
15969;DHT22;8085;53.472;9.794;2022-07-17T01:00:14;13.60;1.00
15969;DHT22;8085;53.472;9.794;2022-07-17T01:02:45;13.80;1.00
15969;DHT22;8085;53.472;9.794;2022-07-17T01:05:13;13.90;1.00
15969;DHT22;8085;53.472;9.794;2022-07-17T01:07:41;13.90;1.00
15969;DHT22;8085;53.472;9.794;2022-07-17T01:10:08;13.90;1.00
15969;DHT22;8085;53.472;9.794;2022-07-17T01:12:37;13.80;1.00
15969;DHT22;8085;53.472;9.794;2022-07-17T01:15:07;13.80;1.00
15969;DHT22;8085;53.472;9.794;2022-07-17T01:17:35;13.70;1.00
15969;DHT22;8085;53.472;9.794;2022-07-17T01:20:03;13.70;1.00
15969;DHT22;8085;53.472;9.794;2022-07-17T01:22:32;13.60;1.00
15969;DHT22;8085;53.472;9.794;2022-07-17T01:25:00;13.70;1.00
15969;DHT22;8085;53.472;9.794;2022-07-17T01:27:27;13.70;1.00
15969;DHT22;8085;53.472;9.794;2022-07-17T01:29:56;13.60;1.00
15969;DHT22;8085;53.472;9.794;2022-07-17T01:32:31;13.40;1.00
15969;DHT22;8085;53.472;9.794;2022-07-17T01:34:58;13.40;1.00
15969;DHT22;8085;53.472;9.794;2022-07-17T01:37:25;13.50;1.00
15969;DHT22;8085;53.472;9.794;2022-07-17T01:39:53;13.50;1.00
15969;DHT22;8085;53.472;9.794;2022-07-17T01:42:21;13.50;1.00
15969;DHT22;8085;53.472;9.794;2022-07-17T01:44:49;13.40;1.00
15969;DHT22;8085;53.472;9.794;2022-07-17T01:47:16;13.30;1.00
15969;DHT22;8085;53.472;9.794;2022-07-17T01:49:44;13.40;1.00
15969;DHT22;8085;53.472;9.794;2022-07-17T01:52:11;13.50;1.00
15969;DHT22;8085;53.472;9.794;2022-07-17T01:54:38;13.50;1.00
15969;DHT22;8085;53.472;9.794;2022-07-17T01:57:07;13.40;1.00
15969;DHT22;8085;53.472;9.794;2022-07-17T01:59:35;13.40;1.00
15969;DHT22;8085;53.472;9.794;2022-07-17T02:02:03;13.30;1.00
15969;DHT22;8085;53.472;9.794;2022-07-17T02:04:33;13.20;8.70
15969;DHT22;8085;53.472;9.794;2022-07-17T02:07:00;13.00;13.00
15969;DHT22;8085;53.472;9.794;2022-07-17T02:09:27;13.10;17.00
15969;DHT22;8085;53.472;9.794;2022-07-17T02:11:54;12.80;30.50
15969;DHT22;8085;53.472;9.794;2022-07-17T02:14:23;12.90;34.90
15969;DHT22;8085;53.472;9.794;2022-07-17T02:16:50;13.00;38.50
15969;DHT22;8085;53.472;9.794;2022-07-17T02:19:17;13.00;20.70
15969;DHT22;8085;53.472;9.794;2022-07-17T02:21:44;13.00;20.30
15969;DHT22;8085;53.472;9.794;2022-07-17T02:24:11;13.10;21.40
15969;DHT22;8085;53.472;9.794;2022-07-17T02:26:38;13.10;19.90
15969;DHT22;8085;53.472;9.794;2022-07-17T02:29:05;13.10;18.20
15969;DHT22;8085;53.472;9.794;2022-07-17T02:31:34;13.10;16.50
15969;DHT22;8085;53.472;9.794;2022-07-17T02:34:01;13.00;22.50
15969;DHT22;8085;53.472;9.794;2022-07-17T02:36:28;13.00;25.20
15969;DHT22;8085;53.472;9.794;2022-07-17T02:38:54;13.10;24.70
15969;DHT22;8085;53.472;9.794;2022-07-17T02:41:21;12.90;28.00
15969;DHT22;8085;53.472;9.794;2022-07-17T02:43:49;12.90;40.90
15969;DHT22;8085;53.472;9.794;2022-07-17T02:46:15;13.00;43.20
15969;DHT22;8085;53.472;9.794;2022-07-17T02:48:44;13.10;30.20
15969;DHT22;8085;53.472;9.794;2022-07-17T02:51:11;13.20;29.20
15969;DHT22;8085;53.472;9.794;2022-07-17T02:53:38;13.20;15.40
15969;DHT22;8085;53.472;9.794;2022-07-17T02:56:06;13.20;24.20
15969;DHT22;8085;53.472;9.794;2022-07-17T02:58:33;13.10;21.50
15969;DHT22;8085;53.472;9.794;2022-07-17T03:01:00;13.30;26.40
15969;DHT22;8085;53.472;9.794;2022-07-17T03:03:27;13.40;20.50
15969;DHT22;8085;53.472;9.794;2022-07-17T03:05:55;13.50;7.80
15969;DHT22;8085;53.472;9.794;2022-07-17T03:08:22;13.50;2.60
15969;DHT22;8085;53.472;9.794;2022-07-17T03:10:49;13.50;1.00
15969;DHT22;8085;53.472;9.794;2022-07-17T03:13:17;13.40;7.00
15969;DHT22;8085;53.472;9.794;2022-07-17T03:15:44;13.50;8.30
15969;DHT22;8085;53.472;9.794;2022-07-17T03:18:11;13.60;1.00
15969;DHT22;8085;53.472;9.794;2022-07-17T03:20:38;13.60;1.00
15969;DHT22;8085;53.472;9.794;2022-07-17T03:23:06;13.60;1.00
15969;DHT22;8085;53.472;9.794;2022-07-17T03:25:33;13.50;1.00
15969;DHT22;8085;53.472;9.794;2022-07-17T03:28:00;13.50;1.00
15969;DHT22;8085;53.472;9.794;2022-07-17T03:30:27;13.60;1.00
15969;DHT22;8085;53.472;9.794;2022-07-17T03:32:54;13.60;1.00
15969;DHT22;8085;53.472;9.794;2022-07-17T03:35:21;13.50;1.00
15969;DHT22;8085;53.472;9.794;2022-07-17T03:37:48;13.50;14.20
15969;DHT22;8085;53.472;9.794;2022-07-17T03:40:16;13.60;1.00
15969;DHT22;8085;53.472;9.794;2022-07-17T03:42:43;13.60;1.00
15969;DHT22;8085;53.472;9.794;2022-07-17T03:45:10;13.70;1.00
15969;DHT22;8085;53.472;9.794;2022-07-17T03:47:37;13.70;1.00
15969;DHT22;8085;53.472;9.794;2022-07-17T03:50:05;13.60;1.00
15969;DHT22;8085;53.472;9.794;2022-07-17T03:52:32;13.60;1.00
15969;DHT22;8085;53.472;9.794;2022-07-17T03:54:59;13.70;1.00
15969;DHT22;8085;53.472;9.794;2022-07-17T03:57:28;13.60;1.00
15969;DHT22;8085;53.472;9.794;2022-07-17T03:59:56;13.70;1.00
15969;DHT22;8085;53.472;9.794;2022-07-17T04:02:23;13.70;1.00
15969;DHT22;8085;53.472;9.794;2022-07-17T04:04:50;13.80;1.00
15969;DHT22;8085;53.472;9.794;2022-07-17T04:07:17;13.80;1.00
15969;DHT22;8085;53.472;9.794;2022-07-17T04:09:58;13.80;1.00
15969;DHT22;8085;53.472;9.794;2022-07-17T04:12:26;13.80;1.00
15969;DHT22;8085;53.472;9.794;2022-07-17T04:14:56;13.80;1.00
15969;DHT22;8085;53.472;9.794;2022-07-17T04:17:23;13.70;1.00
15969;DHT22;8085;53.472;9.794;2022-07-17T04:19:51;13.60;1.00
15969;DHT22;8085;53.472;9.794;2022-07-17T04:22:18;13.50;10.30
15969;DHT22;8085;53.472;9.794;2022-07-17T04:24:45;13.40;16.30
15969;DHT22;8085;53.472;9.794;2022-07-17T04:27:13;13.40;22.80
15969;DHT22;8085;53.472;9.794;2022-07-17T04:29:40;13.40;25.80
15969;DHT22;8085;53.472;9.794;2022-07-17T04:32:08;13.50;17.20
15969;DHT22;8085;53.472;9.794;2022-07-17T04:34:36;13.60;17.60
15969;DHT22;8085;53.472;9.794;2022-07-17T04:37:04;13.60;6.60
15969;DHT22;8085;53.472;9.794;2022-07-17T04:39:31;13.60;5.60
15969;DHT22;8085;53.472;9.794;2022-07-17T04:41:58;13.60;5.80
15969;DHT22;8085;53.472;9.794;2022-07-17T04:44:25;13.70;7.60
15969;DHT22;8085;53.472;9.794;2022-07-17T04:46:52;13.80;1.00
15969;DHT22;8085;53.472;9.794;2022-07-17T04:49:26;13.90;1.00
15969;DHT22;8085;53.472;9.794;2022-07-17T04:51:53;13.90;1.00
15969;DHT22;8085;53.472;9.794;2022-07-17T04:54:21;13.90;1.00
15969;DHT22;8085;53.472;9.794;2022-07-17T04:56:48;13.80;1.00
15969;DHT22;8085;53.472;9.794;2022-07-17T04:59:15;13.90;1.00
15969;DHT22;8085;53.472;9.794;2022-07-17T05:01:42;13.90;1.00
15969;DHT22;8085;53.472;9.794;2022-07-17T05:04:09;14.00;1.00
15969;DHT22;8085;53.472;9.794;2022-07-17T05:06:37;14.00;1.00
15969;DHT22;8085;53.472;9.794;2022-07-17T05:09:04;13.90;1.00
15969;DHT22;8085;53.472;9.794;2022-07-17T05:11:31;13.90;1.00
15969;DHT22;8085;53.472;9.794;2022-07-17T05:13:58;13.90;1.00
15969;DHT22;8085;53.472;9.794;2022-07-17T05:16:25;13.90;1.00
15969;DHT22;8085;53.472;9.794;2022-07-17T05:18:52;14.00;1.00
15969;DHT22;8085;53.472;9.794;2022-07-17T05:21:20;14.10;1.00
15969;DHT22;8085;53.472;9.794;2022-07-17T05:23:53;14.10;1.00
15969;DHT22;8085;53.472;9.794;2022-07-17T05:26:21;14.20;1.00
15969;DHT22;8085;53.472;9.794;2022-07-17T05:28:48;14.20;1.00
15969;DHT22;8085;53.472;9.794;2022-07-17T05:31:15;14.10;1.00
15969;DHT22;8085;53.472;9.794;2022-07-17T05:33:45;14.20;1.00
15969;DHT22;8085;53.472;9.794;2022-07-17T05:36:12;14.30;1.00
15969;DHT22;8085;53.472;9.794;2022-07-17T05:38:39;14.30;1.00
15969;DHT22;8085;53.472;9.794;2022-07-17T05:41:08;14.40;1.00
15969;DHT22;8085;53.472;9.794;2022-07-17T05:43:34;14.50;1.00
15969;DHT22;8085;53.472;9.794;2022-07-17T05:46:01;14.50;1.00
15969;DHT22;8085;53.472;9.794;2022-07-17T05:48:30;14.50;1.00
15969;DHT22;8085;53.472;9.794;2022-07-17T05:50:57;14.40;1.00
15969;DHT22;8085;53.472;9.794;2022-07-17T05:53:24;14.40;1.00
15969;DHT22;8085;53.472;9.794;2022-07-17T05:55:52;14.40;1.00
15969;DHT22;8085;53.472;9.794;2022-07-17T05:58:20;14.50;1.00
15969;DHT22;8085;53.472;9.794;2022-07-17T06:00:47;14.60;1.00
15969;DHT22;8085;53.472;9.794;2022-07-17T06:03:15;14.70;1.00
15969;DHT22;8085;53.472;9.794;2022-07-17T06:05:42;14.70;1.00
15969;DHT22;8085;53.472;9.794;2022-07-17T06:08:09;14.70;1.00
15969;DHT22;8085;53.472;9.794;2022-07-17T06:10:36;14.70;1.00
15969;DHT22;8085;53.472;9.794;2022-07-17T06:13:04;14.80;1.00
15969;DHT22;8085;53.472;9.794;2022-07-17T06:15:32;14.90;1.00
15969;DHT22;8085;53.472;9.794;2022-07-17T06:18:00;14.90;1.00
15969;DHT22;8085;53.472;9.794;2022-07-17T06:20:27;15.00;1.00
15969;DHT22;8085;53.472;9.794;2022-07-17T06:22:54;15.00;1.00
15969;DHT22;8085;53.472;9.794;2022-07-17T06:25:21;14.90;1.00
15969;DHT22;8085;53.472;9.794;2022-07-17T06:27:48;14.80;1.00
15969;DHT22;8085;53.472;9.794;2022-07-17T06:30:16;14.80;1.00
15969;DHT22;8085;53.472;9.794;2022-07-17T06:32:45;14.90;1.00
15969;DHT22;8085;53.472;9.794;2022-07-17T06:35:12;15.00;1.00
15969;DHT22;8085;53.472;9.794;2022-07-17T06:37:39;15.00;1.00
15969;DHT22;8085;53.472;9.794;2022-07-17T06:40:07;15.00;1.00
15969;DHT22;8085;53.472;9.794;2022-07-17T06:42:34;14.90;1.00
15969;DHT22;8085;53.472;9.794;2022-07-17T06:45:01;15.00;1.00
15969;DHT22;8085;53.472;9.794;2022-07-17T06:47:28;15.00;1.00
15969;DHT22;8085;53.472;9.794;2022-07-17T06:49:56;15.10;1.00
15969;DHT22;8085;53.472;9.794;2022-07-17T06:52:24;15.30;1.00
15969;DHT22;8085;53.472;9.794;2022-07-17T06:54:50;15.30;1.00
15969;DHT22;8085;53.472;9.794;2022-07-17T06:57:17;15.40;1.00
15969;DHT22;8085;53.472;9.794;2022-07-17T06:59:44;15.30;1.00
15969;DHT22;8085;53.472;9.794;2022-07-17T07:02:11;15.40;1.00
15969;DHT22;8085;53.472;9.794;2022-07-17T07:04:38;15.50;1.00
15969;DHT22;8085;53.472;9.794;2022-07-17T07:07:06;15.60;1.00
15969;DHT22;8085;53.472;9.794;2022-07-17T07:09:33;15.70;1.00
15969;DHT22;8085;53.472;9.794;2022-07-17T07:12:00;15.90;1.00
15969;DHT22;8085;53.472;9.794;2022-07-17T07:14:27;16.10;1.00
15969;DHT22;8085;53.472;9.794;2022-07-17T07:16:54;16.30;1.00
15969;DHT22;8085;53.472;9.794;2022-07-17T07:19:21;16.50;1.00
15969;DHT22;8085;53.472;9.794;2022-07-17T07:21:48;16.50;1.00
15969;DHT22;8085;53.472;9.794;2022-07-17T07:24:16;16.50;1.00
15969;DHT22;8085;53.472;9.794;2022-07-17T07:26:43;16.50;1.00
15969;DHT22;8085;53.472;9.794;2022-07-17T07:29:10;16.50;1.00
15969;DHT22;8085;53.472;9.794;2022-07-17T07:31:37;16.60;1.00
15969;DHT22;8085;53.472;9.794;2022-07-17T07:34:04;16.80;1.00
15969;DHT22;8085;53.472;9.794;2022-07-17T07:36:31;17.20;1.00
15969;DHT22;8085;53.472;9.794;2022-07-17T07:38:58;17.50;1.00
15969;DHT22;8085;53.472;9.794;2022-07-17T07:41:26;17.60;1.00
15969;DHT22;8085;53.472;9.794;2022-07-17T07:43:53;17.60;1.00
15969;DHT22;8085;53.472;9.794;2022-07-17T07:46:20;17.60;1.00
15969;DHT22;8085;53.472;9.794;2022-07-17T07:48:47;17.50;1.00
15969;DHT22;8085;53.472;9.794;2022-07-17T07:51:14;17.40;1.00
15969;DHT22;8085;53.472;9.794;2022-07-17T07:53:41;17.40;1.00
15969;DHT22;8085;53.472;9.794;2022-07-17T07:56:08;17.50;1.00
15969;DHT22;8085;53.472;9.794;2022-07-17T07:58:36;17.60;1.00
15969;DHT22;8085;53.472;9.794;2022-07-17T08:01:03;17.40;1.00
15969;DHT22;8085;53.472;9.794;2022-07-17T08:03:30;17.30;1.00
15969;DHT22;8085;53.472;9.794;2022-07-17T08:05:57;17.30;1.00
15969;DHT22;8085;53.472;9.794;2022-07-17T08:08:24;17.30;1.00
15969;DHT22;8085;53.472;9.794;2022-07-17T08:10:52;17.30;1.00
15969;DHT22;8085;53.472;9.794;2022-07-17T08:13:19;17.40;1.00
15969;DHT22;8085;53.472;9.794;2022-07-17T08:15:48;17.80;1.00
15969;DHT22;8085;53.472;9.794;2022-07-17T08:18:15;18.00;99.90
15969;DHT22;8085;53.472;9.794;2022-07-17T08:20:42;18.00;99.90
15969;DHT22;8085;53.472;9.794;2022-07-17T08:23:09;18.00;99.90
15969;DHT22;8085;53.472;9.794;2022-07-17T08:25:36;18.30;99.90
15969;DHT22;8085;53.472;9.794;2022-07-17T08:28:04;18.20;99.90
15969;DHT22;8085;53.472;9.794;2022-07-17T08:30:31;18.60;99.90
15969;DHT22;8085;53.472;9.794;2022-07-17T08:33:02;18.60;99.90
15969;DHT22;8085;53.472;9.794;2022-07-17T08:35:29;18.50;99.90
15969;DHT22;8085;53.472;9.794;2022-07-17T08:37:57;18.80;99.90
15969;DHT22;8085;53.472;9.794;2022-07-17T08:40:27;18.60;40.00
15969;DHT22;8085;53.472;9.794;2022-07-17T08:42:55;18.70;99.90
15969;DHT22;8085;53.472;9.794;2022-07-17T08:45:23;19.10;99.90
15969;DHT22;8085;53.472;9.794;2022-07-17T08:47:52;19.50;1.00
15969;DHT22;8085;53.472;9.794;2022-07-17T08:50:23;19.50;1.00
15969;DHT22;8085;53.472;9.794;2022-07-17T08:52:51;19.50;1.00
15969;DHT22;8085;53.472;9.794;2022-07-17T08:55:18;19.40;1.00
15969;DHT22;8085;53.472;9.794;2022-07-17T08:57:46;19.40;99.90
15969;DHT22;8085;53.472;9.794;2022-07-17T09:00:14;19.00;1.00
15969;DHT22;8085;53.472;9.794;2022-07-17T09:02:53;18.70;1.00
15969;DHT22;8085;53.472;9.794;2022-07-17T09:05:22;19.10;1.00
15969;DHT22;8085;53.472;9.794;2022-07-17T09:07:49;19.70;95.10
15969;DHT22;8085;53.472;9.794;2022-07-17T09:10:16;20.10;1.00
15969;DHT22;8085;53.472;9.794;2022-07-17T09:12:44;19.90;1.00
15969;DHT22;8085;53.472;9.794;2022-07-17T09:15:16;19.40;99.90
15969;DHT22;8085;53.472;9.794;2022-07-17T09:17:50;19.50;1.00
15969;DHT22;8085;53.472;9.794;2022-07-17T09:20:17;19.70;1.00
15969;DHT22;8085;53.472;9.794;2022-07-17T09:22:55;19.50;1.00
15969;DHT22;8085;53.472;9.794;2022-07-17T09:25:34;19.00;1.00
15969;DHT22;8085;53.472;9.794;2022-07-17T09:28:02;19.40;13.40
15969;DHT22;8085;53.472;9.794;2022-07-17T09:30:30;19.60;1.00
15969;DHT22;8085;53.472;9.794;2022-07-17T09:32:58;19.30;1.00
15969;DHT22;8085;53.472;9.794;2022-07-17T09:35:28;19.40;99.90
15969;DHT22;8085;53.472;9.794;2022-07-17T09:37:57;20.00;99.90
15969;DHT22;8085;53.472;9.794;2022-07-17T09:40:27;19.80;99.90
15969;DHT22;8085;53.472;9.794;2022-07-17T09:43:12;19.50;1.00
15969;DHT22;8085;53.472;9.794;2022-07-17T09:45:39;20.00;1.00
15969;DHT22;8085;53.472;9.794;2022-07-17T09:48:09;20.40;1.00
15969;DHT22;8085;53.472;9.794;2022-07-17T09:50:37;20.70;1.00
15969;DHT22;8085;53.472;9.794;2022-07-17T09:53:07;21.00;99.90
15969;DHT22;8085;53.472;9.794;2022-07-17T09:55:35;21.10;1.00
15969;DHT22;8085;53.472;9.794;2022-07-17T09:58:05;20.90;99.90
15969;DHT22;8085;53.472;9.794;2022-07-17T10:00:35;21.00;99.90
15969;DHT22;8085;53.472;9.794;2022-07-17T10:03:04;21.30;1.00
15969;DHT22;8085;53.472;9.794;2022-07-17T10:05:31;21.40;1.00
15969;DHT22;8085;53.472;9.794;2022-07-17T10:07:59;21.60;99.90
15969;DHT22;8085;53.472;9.794;2022-07-17T10:10:28;21.80;1.00
15969;DHT22;8085;53.472;9.794;2022-07-17T10:12:55;21.60;1.00
15969;DHT22;8085;53.472;9.794;2022-07-17T10:15:24;21.80;99.90
15969;DHT22;8085;53.472;9.794;2022-07-17T10:18:03;22.00;1.00
15969;DHT22;8085;53.472;9.794;2022-07-17T10:20:30;21.90;1.00
15969;DHT22;8085;53.472;9.794;2022-07-17T10:22:57;22.10;1.00
15969;DHT22;8085;53.472;9.794;2022-07-17T10:25:25;21.70;1.00
15969;DHT22;8085;53.472;9.794;2022-07-17T10:27:54;21.80;1.00
15969;DHT22;8085;53.472;9.794;2022-07-17T10:30:26;22.00;99.90
15969;DHT22;8085;53.472;9.794;2022-07-17T10:32:54;22.30;1.00
15969;DHT22;8085;53.472;9.794;2022-07-17T10:35:22;22.20;1.00
15969;DHT22;8085;53.472;9.794;2022-07-17T10:37:49;21.90;1.00
15969;DHT22;8085;53.472;9.794;2022-07-17T10:40:18;21.80;99.90
15969;DHT22;8085;53.472;9.794;2022-07-17T10:42:50;21.90;1.00
15969;DHT22;8085;53.472;9.794;2022-07-17T10:45:20;22.30;99.90
15969;DHT22;8085;53.472;9.794;2022-07-17T10:47:57;22.40;1.00
15969;DHT22;8085;53.472;9.794;2022-07-17T10:50:29;22.20;99.90
15969;DHT22;8085;53.472;9.794;2022-07-17T10:53:05;22.30;99.90
15969;DHT22;8085;53.472;9.794;2022-07-17T10:55:33;22.60;99.90
15969;DHT22;8085;53.472;9.794;2022-07-17T10:58:00;22.50;1.00
15969;DHT22;8085;53.472;9.794;2022-07-17T11:00:28;22.30;1.00
15969;DHT22;8085;53.472;9.794;2022-07-17T11:02:55;22.20;99.90
15969;DHT22;8085;53.472;9.794;2022-07-17T11:05:22;22.10;96.00
15969;DHT22;8085;53.472;9.794;2022-07-17T11:07:55;22.40;1.00
15969;DHT22;8085;53.472;9.794;2022-07-17T11:10:23;22.50;1.00
15969;DHT22;8085;53.472;9.794;2022-07-17T11:12:51;22.20;1.00
15969;DHT22;8085;53.472;9.794;2022-07-17T11:15:18;22.00;1.00
15969;DHT22;8085;53.472;9.794;2022-07-17T11:17:47;21.60;1.00
15969;DHT22;8085;53.472;9.794;2022-07-17T11:20:16;21.70;99.90
15969;DHT22;8085;53.472;9.794;2022-07-17T11:22:44;22.10;1.00
15969;DHT22;8085;53.472;9.794;2022-07-17T11:25:11;22.60;1.00
15969;DHT22;8085;53.472;9.794;2022-07-17T11:27:39;23.20;99.90
15969;DHT22;8085;53.472;9.794;2022-07-17T11:30:11;23.20;1.00
15969;DHT22;8085;53.472;9.794;2022-07-17T11:32:41;23.60;1.00
15969;DHT22;8085;53.472;9.794;2022-07-17T11:35:20;24.00;99.90
15969;DHT22;8085;53.472;9.794;2022-07-17T11:37:50;23.70;19.60
15969;DHT22;8085;53.472;9.794;2022-07-17T11:40:17;23.60;1.00
15969;DHT22;8085;53.472;9.794;2022-07-17T11:42:44;23.80;47.60
15969;DHT22;8085;53.472;9.794;2022-07-17T11:45:12;23.90;21.10
15969;DHT22;8085;53.472;9.794;2022-07-17T11:47:39;23.80;1.00
15969;DHT22;8085;53.472;9.794;2022-07-17T11:50:11;23.70;1.00
15969;DHT22;8085;53.472;9.794;2022-07-17T11:52:43;23.70;1.00
15969;DHT22;8085;53.472;9.794;2022-07-17T11:55:11;23.60;1.00
15969;DHT22;8085;53.472;9.794;2022-07-17T11:57:43;23.10;99.90
15969;DHT22;8085;53.472;9.794;2022-07-17T12:00:13;23.30;1.00
15969;DHT22;8085;53.472;9.794;2022-07-17T12:02:40;23.50;26.50
15969;DHT22;8085;53.472;9.794;2022-07-17T12:05:08;23.40;99.90
15969;DHT22;8085;53.472;9.794;2022-07-17T12:07:44;23.60;99.90
15969;DHT22;8085;53.472;9.794;2022-07-17T12:10:13;23.90;1.00
15969;DHT22;8085;53.472;9.794;2022-07-17T12:12:50;24.20;1.00
15969;DHT22;8085;53.472;9.794;2022-07-17T12:15:18;24.00;1.00
15969;DHT22;8085;53.472;9.794;2022-07-17T12:17:45;23.70;1.00
15969;DHT22;8085;53.472;9.794;2022-07-17T12:20:12;23.60;17.10
15969;DHT22;8085;53.472;9.794;2022-07-17T12:22:45;23.50;1.00
15969;DHT22;8085;53.472;9.794;2022-07-17T12:25:23;23.30;1.00
15969;DHT22;8085;53.472;9.794;2022-07-17T12:27:51;23.50;1.00
15969;DHT22;8085;53.472;9.794;2022-07-17T12:30:18;23.70;1.00
15969;DHT22;8085;53.472;9.794;2022-07-17T12:32:45;23.90;1.00
15969;DHT22;8085;53.472;9.794;2022-07-17T12:35:13;24.10;1.00
15969;DHT22;8085;53.472;9.794;2022-07-17T12:37:40;24.00;1.00
15969;DHT22;8085;53.472;9.794;2022-07-17T12:40:09;24.00;1.00
15969;DHT22;8085;53.472;9.794;2022-07-17T12:42:36;24.20;1.00
15969;DHT22;8085;53.472;9.794;2022-07-17T12:45:04;24.30;1.00
15969;DHT22;8085;53.472;9.794;2022-07-17T12:47:31;24.50;1.00
15969;DHT22;8085;53.472;9.794;2022-07-17T12:49:58;24.50;1.00
15969;DHT22;8085;53.472;9.794;2022-07-17T12:52:26;24.30;1.00
15969;DHT22;8085;53.472;9.794;2022-07-17T12:54:53;24.30;1.00
15969;DHT22;8085;53.472;9.794;2022-07-17T12:57:29;24.40;1.00
15969;DHT22;8085;53.472;9.794;2022-07-17T12:59:56;24.40;1.00
15969;DHT22;8085;53.472;9.794;2022-07-17T13:02:23;24.30;1.00
15969;DHT22;8085;53.472;9.794;2022-07-17T13:04:50;24.10;1.00
15969;DHT22;8085;53.472;9.794;2022-07-17T13:07:17;24.00;1.00
15969;DHT22;8085;53.472;9.794;2022-07-17T13:09:44;23.90;1.00
15969;DHT22;8085;53.472;9.794;2022-07-17T13:12:11;24.00;1.00
15969;DHT22;8085;53.472;9.794;2022-07-17T13:14:39;24.10;1.00
15969;DHT22;8085;53.472;9.794;2022-07-17T13:17:06;24.10;1.00
15969;DHT22;8085;53.472;9.794;2022-07-17T13:19:34;24.20;1.00
15969;DHT22;8085;53.472;9.794;2022-07-17T13:22:01;24.00;1.00
15969;DHT22;8085;53.472;9.794;2022-07-17T13:24:29;24.10;1.00
15969;DHT22;8085;53.472;9.794;2022-07-17T13:26:56;24.30;99.90
15969;DHT22;8085;53.472;9.794;2022-07-17T13:29:23;24.30;99.90
15969;DHT22;8085;53.472;9.794;2022-07-17T13:31:53;24.40;99.90
15969;DHT22;8085;53.472;9.794;2022-07-17T13:34:20;24.20;99.90
15969;DHT22;8085;53.472;9.794;2022-07-17T13:36:47;24.30;1.00
15969;DHT22;8085;53.472;9.794;2022-07-17T13:39:15;24.60;1.00
15969;DHT22;8085;53.472;9.794;2022-07-17T13:41:42;24.90;99.90
15969;DHT22;8085;53.472;9.794;2022-07-17T13:44:09;24.80;99.90
15969;DHT22;8085;53.472;9.794;2022-07-17T13:46:36;25.10;99.90
15969;DHT22;8085;53.472;9.794;2022-07-17T13:49:04;25.00;99.90
15969;DHT22;8085;53.472;9.794;2022-07-17T13:51:32;25.10;99.90
15969;DHT22;8085;53.472;9.794;2022-07-17T13:53:59;24.90;99.90
15969;DHT22;8085;53.472;9.794;2022-07-17T13:56:26;24.80;99.90
15969;DHT22;8085;53.472;9.794;2022-07-17T13:58:53;24.70;99.90
15969;DHT22;8085;53.472;9.794;2022-07-17T14:01:21;25.00;99.90
15969;DHT22;8085;53.472;9.794;2022-07-17T14:03:47;25.20;99.90
15969;DHT22;8085;53.472;9.794;2022-07-17T14:06:16;25.00;99.90
15969;DHT22;8085;53.472;9.794;2022-07-17T14:08:43;24.80;99.90
15969;DHT22;8085;53.472;9.794;2022-07-17T14:11:10;24.80;99.90
15969;DHT22;8085;53.472;9.794;2022-07-17T14:13:37;24.60;99.90
15969;DHT22;8085;53.472;9.794;2022-07-17T14:16:05;24.40;99.90
15969;DHT22;8085;53.472;9.794;2022-07-17T14:18:32;24.50;99.90
15969;DHT22;8085;53.472;9.794;2022-07-17T14:20:58;24.70;99.90
15969;DHT22;8085;53.472;9.794;2022-07-17T14:23:27;24.70;99.90
15969;DHT22;8085;53.472;9.794;2022-07-17T14:25:54;24.60;99.90
15969;DHT22;8085;53.472;9.794;2022-07-17T14:28:21;25.10;99.90
15969;DHT22;8085;53.472;9.794;2022-07-17T14:30:48;25.10;99.90
15969;DHT22;8085;53.472;9.794;2022-07-17T14:33:14;25.00;99.90
15969;DHT22;8085;53.472;9.794;2022-07-17T14:35:41;25.10;99.90
15969;DHT22;8085;53.472;9.794;2022-07-17T14:38:08;24.80;99.90
15969;DHT22;8085;53.472;9.794;2022-07-17T14:40:37;24.60;99.90
15969;DHT22;8085;53.472;9.794;2022-07-17T14:43:03;24.70;99.90
15969;DHT22;8085;53.472;9.794;2022-07-17T14:45:30;24.90;99.90
15969;DHT22;8085;53.472;9.794;2022-07-17T14:47:57;25.10;99.90
15969;DHT22;8085;53.472;9.794;2022-07-17T14:50:24;25.00;99.90
15969;DHT22;8085;53.472;9.794;2022-07-17T14:52:51;24.90;99.90
15969;DHT22;8085;53.472;9.794;2022-07-17T14:55:18;24.60;99.90
15969;DHT22;8085;53.472;9.794;2022-07-17T14:57:46;24.70;99.90
15969;DHT22;8085;53.472;9.794;2022-07-17T15:00:13;24.90;99.90
15969;DHT22;8085;53.472;9.794;2022-07-17T15:02:41;25.10;99.90
15969;DHT22;8085;53.472;9.794;2022-07-17T15:05:08;25.00;99.90
15969;DHT22;8085;53.472;9.794;2022-07-17T15:07:36;25.00;99.90
15969;DHT22;8085;53.472;9.794;2022-07-17T15:10:03;25.00;99.90
15969;DHT22;8085;53.472;9.794;2022-07-17T15:12:30;24.90;99.90
15969;DHT22;8085;53.472;9.794;2022-07-17T15:14:59;24.90;99.90
15969;DHT22;8085;53.472;9.794;2022-07-17T15:17:26;25.00;99.90
15969;DHT22;8085;53.472;9.794;2022-07-17T15:19:53;24.90;99.90
15969;DHT22;8085;53.472;9.794;2022-07-17T15:22:20;24.90;99.90
15969;DHT22;8085;53.472;9.794;2022-07-17T15:24:47;24.80;99.90
15969;DHT22;8085;53.472;9.794;2022-07-17T15:27:14;24.80;99.90
15969;DHT22;8085;53.472;9.794;2022-07-17T15:29:40;24.70;99.90
15969;DHT22;8085;53.472;9.794;2022-07-17T15:32:09;24.80;99.90
15969;DHT22;8085;53.472;9.794;2022-07-17T15:34:36;24.70;99.90
15969;DHT22;8085;53.472;9.794;2022-07-17T15:37:03;24.70;99.90
15969;DHT22;8085;53.472;9.794;2022-07-17T15:39:30;24.80;99.90
15969;DHT22;8085;53.472;9.794;2022-07-17T15:41:57;24.70;99.90
15969;DHT22;8085;53.472;9.794;2022-07-17T15:44:24;24.70;99.90
15969;DHT22;8085;53.472;9.794;2022-07-17T15:46:51;24.40;99.90
15969;DHT22;8085;53.472;9.794;2022-07-17T15:49:20;24.00;99.90
15969;DHT22;8085;53.472;9.794;2022-07-17T15:51:48;23.80;99.90
15969;DHT22;8085;53.472;9.794;2022-07-17T15:54:15;23.80;99.90
15969;DHT22;8085;53.472;9.794;2022-07-17T15:56:43;23.80;99.90
15969;DHT22;8085;53.472;9.794;2022-07-17T15:59:13;23.80;99.90
15969;DHT22;8085;53.472;9.794;2022-07-17T16:01:42;23.80;99.90